Latest Weather Observations for Newdegate

IDW60801

Issued at 10:32 am WST Thursday 28 July 2016 (issued every 30 minutes, with the page automatically refreshed every 10 minutes)

About weather observations | Map of weather stations | Latest weather observations for WA | Other Formats
Station Details ID: 010692 Name: NEWDEGATE RESEARCH STATION Lat: -33.11 Lon: 118.84 Height: 320.0 m
Data from the previous 72 hours. | See also: Recent months at Newdegate
Date/Time
WST
Temp
°C
App
Temp
°C
Dew
Point
°C
Rel
Hum
%
Delta-T
°C
Wind Press
QNH
hPa
Press
MSL
hPa
Rain since
9am
mm
Dir  Spd
km/h
Gust
km/h
Spd
kts
Gust
kts
28/10:30am 14.2 11.6 7.7 65 3.3 NNW 11 17 6 9 1022.8 1023.1 0.0
28/10:00am 13.4 10.5 8.0 70 2.7 NNW 13 17 7 9 1022.9 1023.2 0.0
28/09:30am 10.6 10.2 8.2 85 1.2 CALM 0 2 0 1 1023.3 1023.6 0.0
28/09:00am 10.5 8.9 8.1 85 1.2 N 6 9 3 5 1023.1 1023.4 0.0
28/08:30am 9.8 8.1 8.4 91 0.7 NNW 7 9 4 5 1023.4 1023.7 0.0
28/08:00am 7.0 5.7 5.8 92 0.5 WNW 2 2 1 1 1023.2 1023.5 0.0
28/07:30am 6.3 4.4 5.1 92 0.5 SW 4 4 2 2 1023.0 1023.3 0.0
28/07:00am 6.2 5.1 5.0 92 0.5 CALM 0 0 0 0 1022.7 1023.0 0.0
28/06:30am 5.1 3.4 3.8 91 0.6 NE 2 6 1 3 1022.3 1022.6 0.0
28/06:00am 6.5 5.1 5.3 92 0.5 WNW 2 4 1 2 1022.5 1022.8 0.0
28/05:30am 6.3 4.4 5.1 92 0.5 WNW 4 6 2 3 1022.5 1022.8 0.0
28/05:00am 5.8 4.2 4.6 92 0.5 SW 2 4 1 2 1022.5 1022.8 0.0
28/04:30am 4.1 2.6 2.8 91 0.5 CALM 0 4 0 2 1022.6 1022.9 0.0
28/04:00am 4.2 2.7 2.9 91 0.5 CALM 0 0 0 0 1022.4 1022.7 0.0
28/03:30am 4.2 2.7 2.9 91 0.5 CALM 0 0 0 0 1022.3 1022.6 0.0
28/03:00am 6.0 4.8 4.6 91 0.6 CALM 0 0 0 0 1022.3 1022.6 0.0
28/02:30am 6.3 5.2 4.9 91 0.6 CALM 0 2 0 1 1022.4 1022.7 0.0
28/02:00am 6.0 4.8 4.6 91 0.6 CALM 0 0 0 0 1022.9 1023.2 0.0
28/01:30am 5.6 4.3 4.2 91 0.6 CALM 0 0 0 0 1023.3 1023.6 0.0
28/01:00am 5.8 4.6 4.4 91 0.6 CALM 0 0 0 0 1023.6 1023.9 0.0
28/12:30am 5.5 4.2 4.2 91 0.6 CALM 0 0 0 0 1023.5 1023.8 0.0
28/12:00am 5.5 3.4 4.0 90 0.6 S 4 6 2 3 1023.8 1024.1 0.0
 
Date/Time
WST
Temp
°C
App
Temp
°C
Dew
Point
°C
Rel
Hum
%
Delta-T
°C
Wind Press
QNH
hPa
Press
MSL
hPa
Rain since
9am
mm
Dir  Spd
km/h
Gust
km/h
Spd
kts
Gust
kts
27/11:30pm 6.6 5.5 5.1 90 0.7 CALM 0 0 0 0 1023.7 1024.0 0.0
27/11:00pm 7.3 6.4 5.9 91 0.6 CALM 0 2 0 1 1024.1 1024.4 0.0
27/10:30pm 7.0 5.2 5.5 90 0.7 NNE 4 6 2 3 1024.3 1024.7 0.0
27/10:00pm 7.5 5.8 6.0 90 0.7 WNW 4 6 2 3 1024.9 1025.3 0.0
27/09:30pm 6.5 5.3 4.8 89 0.8 CALM 0 0 0 0 1024.8 1025.2 0.0
27/09:00pm 6.9 5.8 5.2 89 0.8 CALM 0 0 0 0 1024.9 1025.3 0.0
27/08:30pm 7.3 6.3 5.4 88 0.9 CALM 0 0 0 0 1025.1 1025.5 0.0
27/08:00pm 8.3 7.5 6.4 88 0.9 CALM 0 0 0 0 1025.1 1025.5 0.0
27/07:30pm 8.8 8.1 6.9 88 0.9 CALM 0 0 0 0 1025.0 1025.4 0.0
27/07:00pm 9.5 8.9 7.4 87 1.0 CALM 0 0 0 0 1024.8 1025.2 0.0
27/06:30pm 9.5 8.9 7.3 86 1.1 CALM 0 0 0 0 1024.7 1025.1 0.0
27/06:00pm 9.7 9.0 7.1 84 1.2 CALM 0 0 0 0 1024.7 1025.1 0.0
27/05:30pm 11.2 10.7 7.7 79 1.7 CALM 0 0 0 0 1024.4 1024.8 0.0
27/05:00pm 13.4 12.5 9.3 76 2.1 NNW 4 4 2 2 1024.4 1024.8 0.0
27/04:30pm 14.2 12.9 9.2 72 2.6 N 6 6 3 3 1024.3 1024.7 0.0
27/04:00pm 15.1 13.5 8.8 66 3.2 NNW 7 11 4 6 1024.5 1024.9 0.0
27/03:30pm 15.8 14.4 9.5 66 3.3 N 7 9 4 5 1024.5 1024.9 0.0
27/03:00pm 15.4 13.1 9.1 66 3.3 NNW 11 15 6 8 1024.6 1025.0 0.0
27/02:30pm 15.5 12.7 8.7 64 3.5 NNW 13 19 7 10 1024.8 1025.2 0.0
27/02:00pm 15.6 12.9 8.8 64 3.5 N 13 17 7 9 1024.4 1024.8 0.0
27/01:30pm 14.9 12.0 8.2 64 3.4 NNW 13 20 7 11 1024.8 1025.2 0.0
27/01:00pm 15.4 12.1 8.2 62 3.7 N 15 20 8 11 1025.0 1025.4 0.0
27/12:30pm 15.6 12.1 8.6 63 3.6 NNW 17 24 9 13 1025.8 1026.1 0.0
27/12:00pm 14.9 12.0 8.2 64 3.4 N 13 19 7 10 1026.4 1026.7 0.0
27/11:30am 14.9 11.8 8.8 67 3.2 N 15 24 8 13 1027.0 1027.4 0.0
27/11:00am 13.9 9.9 8.1 68 2.9 N 19 24 10 13 1027.3 1027.7 0.0
27/10:30am 13.3 10.7 7.7 69 2.8 N 11 13 6 7 1027.5 1027.9 0.0
27/10:00am 12.6 10.1 8.3 75 2.2 N 11 13 6 7 1028.1 1028.5 0.0
27/09:30am 11.4 9.2 7.7 78 1.8 N 9 13 5 7 1028.4 1028.8 0.0
27/09:00am 10.2 9.5 8.6 90 0.8 N 2 9 1 5 1028.1 1028.5 0.2
27/08:30am 8.1 7.4 7.0 93 0.5 CALM 0 0 0 0 1028.1 1028.5 0.2
27/08:00am 5.3 4.0 4.1 92 0.5 CALM 0 0 0 0 1028.1 1028.5 0.2
27/07:30am 3.1 1.4 1.9 92 0.5 CALM 0 0 0 0 1027.7 1028.1 0.2
27/07:00am 2.2 0.4 0.9 91 0.5 CALM 0 0 0 0 1027.4 1027.8 0.2
27/06:30am 2.3 0.5 1.0 91 0.5 CALM 0 2 0 1 1027.2 1027.6 0.2
27/06:00am 2.6 0.4 1.1 90 0.6 E 2 4 1 2 1027.5 1027.9 0.2
27/05:30am 3.4 1.3 1.9 90 0.6 E 2 4 1 2 1027.7 1028.1 0.2
27/05:00am 4.5 3.0 3.0 90 0.6 CALM 0 0 0 0 1027.6 1028.0 0.2
27/04:30am 5.3 3.9 3.8 90 0.6 CALM 0 0 0 0 1027.6 1028.0 0.2
27/04:00am 6.3 5.2 4.9 91 0.6 CALM 0 0 0 0 1027.3 1027.7 0.2
27/03:30am 6.0 4.8 4.5 90 0.7 CALM 0 0 0 0 1027.2 1027.6 0.2
27/03:00am 6.5 5.4 5.0 90 0.7 CALM 0 0 0 0 1026.8 1027.1 0.2
27/02:30am 7.2 6.2 5.7 90 0.7 CALM 0 0 0 0 1027.0 1027.4 0.2
27/02:00am 7.8 7.0 6.3 90 0.7 CALM 0 6 0 3 1027.1 1027.5 0.2
27/01:30am 7.9 6.7 6.4 90 0.7 E 2 4 1 2 1027.4 1027.8 0.2
27/01:00am 8.2 7.4 6.7 90 0.7 CALM 0 0 0 0 1027.5 1027.9 0.2
27/12:30am 7.8 7.0 6.3 90 0.7 CALM 0 0 0 0 1027.6 1028.0 0.2
27/12:00am 7.9 7.1 6.4 90 0.7 CALM 0 0 0 0 1027.7 1028.1 0.2
 
Date/Time
WST
Temp
°C
App
Temp
°C
Dew
Point
°C
Rel
Hum
%
Delta-T
°C
Wind Press
QNH
hPa
Press
MSL
hPa
Rain since
9am
mm
Dir  Spd
km/h
Gust
km/h
Spd
kts
Gust
kts
26/11:30pm 7.1 6.1 5.6 90 0.7 CALM 0 0 0 0 1027.8 1028.2 0.2
26/11:00pm 6.8 5.3 5.1 89 0.8 W 2 2 1 1 1027.7 1028.1 0.2
26/10:30pm 5.6 3.5 3.8 88 0.8 W 4 6 2 3 1027.9 1028.3 0.2
26/10:00pm 6.1 4.8 4.1 87 0.9 CALM 0 0 0 0 1028.0 1028.4 0.2
26/09:30pm 7.0 5.4 4.7 85 1.0 SW 2 4 1 2 1027.9 1028.3 0.2
26/09:00pm 9.4 8.8 7.2 86 1.0 CALM 0 0 0 0 1027.9 1028.3 0.2
26/08:30pm 9.8 9.2 7.4 85 1.2 CALM 0 0 0 0 1027.8 1028.2 0.2
26/08:00pm 10.1 9.6 7.7 85 1.2 CALM 0 4 0 2 1027.6 1028.0 0.2
26/07:30pm 10.2 9.7 8.0 86 1.1 CALM 0 6 0 3 1027.5 1027.9 0.2
26/07:00pm 9.8 9.2 7.4 85 1.2 CALM 0 0 0 0 1027.2 1027.6 0.2
26/06:30pm 9.6 8.5 6.9 83 1.3 WNW 2 4 1 2 1027.1 1027.5 0.2
26/06:00pm 10.4 9.3 7.1 80 1.6 W 2 2 1 1 1026.8 1027.1 0.2
26/05:30pm 11.6 10.2 7.1 74 2.2 WNW 4 6 2 3 1026.7 1027.0 0.2
26/05:00pm 12.6 11.3 7.5 71 2.5 WSW 4 6 2 3 1026.6 1026.9 0.2
26/04:30pm 13.1 11.3 7.1 67 3.0 SW 6 9 3 5 1026.6 1026.9 0.2
26/04:00pm 13.7 11.4 7.5 66 3.1 W 9 13 5 7 1026.5 1026.8 0.2
26/03:30pm 13.8 11.5 7.6 66 3.1 SW 9 13 5 7 1026.5 1026.8 0.2
26/03:00pm 13.9 11.7 7.9 67 3.0 SSW 9 17 5 9 1026.3 1026.6 0.2
26/02:30pm 14.0 11.0 7.5 65 3.3 WSW 13 19 7 10 1026.1 1026.4 0.0
26/02:00pm 14.0 11.5 8.0 67 3.0 SSW 11 17 6 9 1026.0 1026.3 0.0
26/01:30pm 14.2 11.6 7.9 66 3.2 SSW 11 20 6 11 1026.1 1026.4 0.0
26/01:00pm 13.8 10.4 7.6 66 3.1 SW 15 26 8 14 1026.2 1026.5 0.0
26/12:30pm 13.3 9.9 7.7 69 2.8 SW 15 24 8 13 1026.4 1026.7 0.0
26/12:00pm 12.9 9.2 8.0 72 2.4 SW 17 24 9 13 1026.7 1027.0 0.0
26/11:30am 12.4 8.2 7.5 72 2.4 SW 19 28 10 15 1027.1 1027.5 0.0
26/11:00am 12.3 8.5 7.6 73 2.3 SW 17 26 9 14 1027.3 1027.7 0.0
26/10:30am 12.2 8.8 7.7 74 2.2 WSW 15 19 8 10 1027.4 1027.8 0.0
26/10:00am 11.2 9.0 9.5 89 0.9 W 11 15 6 8 1027.5 1027.9 0.0
26/09:30am 9.6 7.2 8.5 93 0.5 WSW 11 15 6 8 1027.5 1027.9 0.0
26/09:00am 8.4 5.3 7.3 93 0.5 WSW 13 17 7 9 1027.5 1027.9 0.0
26/08:30am 7.6 4.7 6.5 93 0.5 WSW 11 17 6 9 1027.3 1027.7 0.0
26/08:00am 7.1 4.5 5.9 92 0.5 WSW 9 17 5 9 1027.0 1027.4 0.0
26/07:30am 6.7 3.6 5.5 92 0.5 W 11 19 6 10 1026.7 1027.0 0.0
26/07:00am 6.4 3.6 5.2 92 0.5 W 9 15 5 8 1026.3 1026.6 0.0
26/06:30am 6.0 3.1 4.8 92 0.5 W 9 15 5 8 1026.1 1026.4 0.0
26/06:00am 6.1 2.9 4.9 92 0.5 W 11 13 6 7 1025.8 1026.1 0.0
26/05:30am 5.9 3.0 4.5 91 0.6 WSW 9 15 5 8 1025.9 1026.2 0.0
26/05:00am 5.2 2.2 3.9 91 0.6 W 9 11 5 6 1025.6 1025.9 0.0
26/04:30am 5.3 2.2 3.8 90 0.6 W 9 13 5 7 1025.2 1025.6 0.0
26/04:00am 5.3 2.2 3.8 90 0.6 W 9 15 5 8 1025.2 1025.6 0.0
26/03:30am 5.3 2.6 3.6 89 0.7 W 7 11 4 6 1025.2 1025.6 0.0
26/03:00am 5.4 1.9 3.7 89 0.7 W 11 15 6 8 1025.3 1025.7 0.0
26/02:30am 5.8 2.4 4.0 88 0.8 W 11 15 6 8 1025.6 1025.9 0.0
26/02:00am 5.9 2.4 3.7 86 0.9 W 11 17 6 9 1025.8 1026.1 0.0
26/01:30am 6.4 2.6 4.1 85 1.0 W 13 17 7 9 1025.8 1026.1 0.0
26/01:00am 6.6 2.9 4.3 85 1.0 W 13 19 7 10 1025.8 1026.1 0.0
26/12:30am 6.5 3.1 4.2 85 1.0 W 11 15 6 8 1025.7 1026.0 0.0
26/12:00am 6.9 3.6 4.6 85 1.0 W 11 17 6 9 1025.8 1026.1 0.0
 
Date/Time
WST
Temp
°C
App
Temp
°C
Dew
Point
°C
Rel
Hum
%
Delta-T
°C
Wind Press
QNH
hPa
Press
MSL
hPa
Rain since
9am
mm
Dir  Spd
km/h
Gust
km/h
Spd
kts
Gust
kts
25/11:30pm 6.9 4.3 4.2 83 1.2 WNW 7 11 4 6 1025.8 1026.1 0.0
25/11:00pm 7.5 4.6 4.6 82 1.3 WNW 9 13 5 7 1026.0 1026.3 0.0
25/10:30pm 7.9 5.4 5.0 82 1.3 WNW 7 13 4 7 1026.3 1026.6 0.0
25/10:00pm 8.0 5.1 4.9 81 1.4 WNW 9 13 5 7 1026.4 1026.7 0.0
25/09:30pm 8.2 5.4 5.3 82 1.3 W 9 17 5 9 1026.5 1026.8 0.0
25/09:00pm 7.3 4.4 4.6 83 1.2 W 9 13 5 7 1026.4 1026.7 0.0
25/08:30pm 8.1 5.3 5.0 81 1.4 WNW 9 13 5 7 1026.1 1026.4 0.0
25/08:00pm 9.1 6.4 5.8 80 1.5 W 9 11 5 6 1026.2 1026.5 0.0
25/07:30pm 9.6 7.1 6.5 81 1.5 W 9 13 5 7 1026.1 1026.4 0.0
25/07:00pm 9.2 6.6 6.1 81 1.4 W 9 13 5 7 1025.8 1026.1 0.0
25/06:30pm 9.7 7.5 6.1 78 1.7 W 7 9 4 5 1025.3 1025.7 0.0
25/06:00pm 10.6 8.7 6.9 78 1.8 WNW 6 7 3 4 1025.3 1025.7 0.0
25/05:30pm 10.4 8.4 6.2 75 2.0 W 6 9 3 5 1025.3 1025.7 0.0
25/05:00pm 12.0 9.4 5.9 66 2.9 W 9 13 5 7 1024.9 1025.3 0.0
25/04:30pm 13.7 10.9 6.8 63 3.4 WSW 11 17 6 9 1024.8 1025.2 0.0
25/04:00pm 14.5 10.9 6.8 60 3.8 WSW 15 19 8 10 1024.8 1025.2 0.0
25/03:30pm 13.9 10.6 6.3 60 3.7 W 13 20 7 11 1024.7 1025.1 0.0
25/03:00pm 13.5 10.2 6.4 62 3.4 WSW 13 17 7 9 1024.7 1025.1 0.0
25/02:30pm 15.2 11.9 6.5 56 4.3 W 13 20 7 11 1024.6 1025.0 0.0
25/02:00pm 14.1 11.6 6.7 61 3.6 W 9 19 5 10 1024.7 1025.1 0.0
25/01:30pm 13.6 10.7 6.7 63 3.4 SW 11 17 6 9 1024.9 1025.3 0.0
25/01:00pm 14.4 12.0 7.0 61 3.7 SSW 9 17 5 9 1025.1 1025.5 0.0
25/12:30pm 13.9 11.5 7.0 63 3.4 SW 9 15 5 8 1025.7 1026.0 0.0
25/12:00pm 13.6 10.9 7.4 66 3.1 SW 11 17 6 9 1026.1 1026.4 0.0
25/11:30am 12.6 9.8 7.1 69 2.7 SW 11 19 6 10 1026.5 1026.8 0.0
25/11:00am 11.8 9.4 6.9 72 2.4 SW 9 15 5 8 1026.7 1027.0 0.0

Other Formats:

Comma delimited format used in spreadsheet applications
http://www.bom.gov.au/fwo/IDW60801/IDW60801.94628.axf

JavaScript Object Notation format (JSON) in row-major order
http://www.bom.gov.au/fwo/IDW60801/IDW60801.94628.json